Terminal Aerodrome Forecast
Issued by NWS

Home | Current Version | Previous Version | Text Only | Print | Product List | Glossary On
Versions: 1 2 3 4 5 6 7 8 9 10 11 12
000
FTUS46 KSTO 301100
TAFSCK
TAF
KSCK 301129Z 3012/3112 32005KT P6SM SCT250
     FM302100 30008KT P6SM SCT250
     FM310900 33005KT P6SM SCT250=

USA.gov is the U.S. government's official web portal to all federal, state and local government web resources and services.